sensor_id;sensor_type;location;lat;lon;timestamp;temperature;humidity
15296;DHT22;7749;49.964;7.890;2023-03-18T00:01:12;10.10;99.90
15296;DHT22;7749;49.964;7.890;2023-03-18T00:03:40;10.10;99.90
15296;DHT22;7749;49.964;7.890;2023-03-18T00:06:12;10.00;99.90
15296;DHT22;7749;49.964;7.890;2023-03-18T00:08:41;10.00;99.90
15296;DHT22;7749;49.964;7.890;2023-03-18T00:11:10;10.00;99.90
15296;DHT22;7749;49.964;7.890;2023-03-18T00:13:40;10.00;99.90
15296;DHT22;7749;49.964;7.890;2023-03-18T00:16:09;10.00;99.90
15296;DHT22;7749;49.964;7.890;2023-03-18T00:18:38;10.00;99.90
15296;DHT22;7749;49.964;7.890;2023-03-18T00:21:07;10.00;99.90
15296;DHT22;7749;49.964;7.890;2023-03-18T00:23:35;9.90;99.90
15296;DHT22;7749;49.964;7.890;2023-03-18T00:26:04;9.90;99.90
15296;DHT22;7749;49.964;7.890;2023-03-18T00:28:32;9.90;99.90
15296;DHT22;7749;49.964;7.890;2023-03-18T00:31:05;10.10;99.90
15296;DHT22;7749;49.964;7.890;2023-03-18T00:33:36;10.00;99.90
15296;DHT22;7749;49.964;7.890;2023-03-18T00:36:06;10.00;99.90
15296;DHT22;7749;49.964;7.890;2023-03-18T00:38:40;9.90;99.90
15296;DHT22;7749;49.964;7.890;2023-03-18T00:41:09;9.90;99.90
15296;DHT22;7749;49.964;7.890;2023-03-18T00:43:44;9.90;99.90
15296;DHT22;7749;49.964;7.890;2023-03-18T00:46:29;9.90;99.90
15296;DHT22;7749;49.964;7.890;2023-03-18T00:48:59;9.90;99.90
15296;DHT22;7749;49.964;7.890;2023-03-18T00:51:30;9.90;99.90
15296;DHT22;7749;49.964;7.890;2023-03-18T00:54:00;9.80;99.90
15296;DHT22;7749;49.964;7.890;2023-03-18T00:56:30;9.80;99.90
15296;DHT22;7749;49.964;7.890;2023-03-18T00:58:58;9.80;99.90
15296;DHT22;7749;49.964;7.890;2023-03-18T01:01:29;9.70;99.90
15296;DHT22;7749;49.964;7.890;2023-03-18T01:03:57;9.70;99.90
15296;DHT22;7749;49.964;7.890;2023-03-18T01:06:28;9.70;99.90
15296;DHT22;7749;49.964;7.890;2023-03-18T01:08:58;9.80;99.90
15296;DHT22;7749;49.964;7.890;2023-03-18T01:11:26;9.80;99.90
15296;DHT22;7749;49.964;7.890;2023-03-18T01:13:54;9.90;99.90
15296;DHT22;7749;49.964;7.890;2023-03-18T01:16:22;9.90;99.90
15296;DHT22;7749;49.964;7.890;2023-03-18T01:18:50;9.90;99.90
15296;DHT22;7749;49.964;7.890;2023-03-18T01:21:18;9.80;99.90
15296;DHT22;7749;49.964;7.890;2023-03-18T01:23:46;9.80;99.90
15296;DHT22;7749;49.964;7.890;2023-03-18T01:26:14;9.80;99.90
15296;DHT22;7749;49.964;7.890;2023-03-18T01:28:41;9.70;99.90
15296;DHT22;7749;49.964;7.890;2023-03-18T01:31:09;9.70;99.90
15296;DHT22;7749;49.964;7.890;2023-03-18T01:33:43;9.70;99.90
15296;DHT22;7749;49.964;7.890;2023-03-18T01:36:11;9.70;99.90
15296;DHT22;7749;49.964;7.890;2023-03-18T01:38:39;9.70;99.90
15296;DHT22;7749;49.964;7.890;2023-03-18T01:41:07;9.70;99.90
15296;DHT22;7749;49.964;7.890;2023-03-18T01:43:37;9.60;99.90
15296;DHT22;7749;49.964;7.890;2023-03-18T01:49:01;9.60;99.90
15296;DHT22;7749;49.964;7.890;2023-03-18T01:51:29;9.60;99.90
15296;DHT22;7749;49.964;7.890;2023-03-18T01:53:59;9.60;99.90
15296;DHT22;7749;49.964;7.890;2023-03-18T01:56:28;9.60;99.90
15296;DHT22;7749;49.964;7.890;2023-03-18T01:58:57;9.60;99.90
15296;DHT22;7749;49.964;7.890;2023-03-18T02:01:34;9.50;99.90
15296;DHT22;7749;49.964;7.890;2023-03-18T02:04:09;9.50;99.90
15296;DHT22;7749;49.964;7.890;2023-03-18T02:06:37;9.50;99.90
15296;DHT22;7749;49.964;7.890;2023-03-18T02:09:06;9.50;99.90
15296;DHT22;7749;49.964;7.890;2023-03-18T02:11:38;9.50;99.90
15296;DHT22;7749;49.964;7.890;2023-03-18T02:14:10;9.50;99.90
15296;DHT22;7749;49.964;7.890;2023-03-18T02:16:44;9.50;99.90
15296;DHT22;7749;49.964;7.890;2023-03-18T02:22:23;9.50;99.90
15296;DHT22;7749;49.964;7.890;2023-03-18T02:25:03;9.50;99.90
15296;DHT22;7749;49.964;7.890;2023-03-18T02:27:36;9.50;99.90
15296;DHT22;7749;49.964;7.890;2023-03-18T02:30:10;9.50;99.90
15296;DHT22;7749;49.964;7.890;2023-03-18T02:32:41;9.60;99.90
15296;DHT22;7749;49.964;7.890;2023-03-18T02:35:10;9.60;99.90
15296;DHT22;7749;49.964;7.890;2023-03-18T02:37:38;9.50;99.90
15296;DHT22;7749;49.964;7.890;2023-03-18T02:40:23;9.60;99.90
15296;DHT22;7749;49.964;7.890;2023-03-18T02:42:53;9.60;99.90
15296;DHT22;7749;49.964;7.890;2023-03-18T02:45:46;9.60;99.90
15296;DHT22;7749;49.964;7.890;2023-03-18T02:48:17;9.50;99.90
15296;DHT22;7749;49.964;7.890;2023-03-18T02:50:50;9.50;99.90
15296;DHT22;7749;49.964;7.890;2023-03-18T02:53:18;9.40;99.90
15296;DHT22;7749;49.964;7.890;2023-03-18T02:55:48;9.40;99.90
15296;DHT22;7749;49.964;7.890;2023-03-18T02:58:16;9.30;99.90
15296;DHT22;7749;49.964;7.890;2023-03-18T03:00:43;9.30;99.90
15296;DHT22;7749;49.964;7.890;2023-03-18T03:03:11;9.30;99.90
15296;DHT22;7749;49.964;7.890;2023-03-18T03:05:39;9.20;99.90
15296;DHT22;7749;49.964;7.890;2023-03-18T03:08:07;9.20;99.90
15296;DHT22;7749;49.964;7.890;2023-03-18T03:10:34;9.30;99.90
15296;DHT22;7749;49.964;7.890;2023-03-18T03:13:03;9.40;99.90
15296;DHT22;7749;49.964;7.890;2023-03-18T03:15:31;9.40;99.90
15296;DHT22;7749;49.964;7.890;2023-03-18T03:17:58;9.40;99.90
15296;DHT22;7749;49.964;7.890;2023-03-18T03:20:26;9.50;99.90
15296;DHT22;7749;49.964;7.890;2023-03-18T03:22:56;9.40;99.90
15296;DHT22;7749;49.964;7.890;2023-03-18T03:25:24;9.40;99.90
15296;DHT22;7749;49.964;7.890;2023-03-18T03:27:53;9.40;99.90
15296;DHT22;7749;49.964;7.890;2023-03-18T03:30:21;9.40;99.90
15296;DHT22;7749;49.964;7.890;2023-03-18T03:32:49;9.30;99.90
15296;DHT22;7749;49.964;7.890;2023-03-18T03:35:19;9.40;99.90
15296;DHT22;7749;49.964;7.890;2023-03-18T03:37:47;9.30;99.90
15296;DHT22;7749;49.964;7.890;2023-03-18T03:40:17;9.40;99.90
15296;DHT22;7749;49.964;7.890;2023-03-18T03:42:46;9.30;99.90
15296;DHT22;7749;49.964;7.890;2023-03-18T03:45:17;9.20;99.90
15296;DHT22;7749;49.964;7.890;2023-03-18T03:47:46;9.20;99.90
15296;DHT22;7749;49.964;7.890;2023-03-18T03:50:14;9.20;99.90
15296;DHT22;7749;49.964;7.890;2023-03-18T03:52:43;9.10;99.90
15296;DHT22;7749;49.964;7.890;2023-03-18T03:55:16;9.20;99.90
15296;DHT22;7749;49.964;7.890;2023-03-18T03:57:44;9.10;99.90
15296;DHT22;7749;49.964;7.890;2023-03-18T04:00:18;9.10;99.90
15296;DHT22;7749;49.964;7.890;2023-03-18T04:02:48;9.00;99.90
15296;DHT22;7749;49.964;7.890;2023-03-18T04:05:19;9.00;99.90
15296;DHT22;7749;49.964;7.890;2023-03-18T04:07:47;8.90;99.90
15296;DHT22;7749;49.964;7.890;2023-03-18T04:10:17;8.90;99.90
15296;DHT22;7749;49.964;7.890;2023-03-18T04:12:46;8.90;99.90
15296;DHT22;7749;49.964;7.890;2023-03-18T04:15:16;8.90;99.90
15296;DHT22;7749;49.964;7.890;2023-03-18T04:17:45;8.90;99.90
15296;DHT22;7749;49.964;7.890;2023-03-18T04:20:13;9.00;99.90
15296;DHT22;7749;49.964;7.890;2023-03-18T04:22:41;9.00;99.90
15296;DHT22;7749;49.964;7.890;2023-03-18T04:25:14;9.00;99.90
15296;DHT22;7749;49.964;7.890;2023-03-18T04:27:44;8.90;99.90
15296;DHT22;7749;49.964;7.890;2023-03-18T04:30:12;8.90;99.90
15296;DHT22;7749;49.964;7.890;2023-03-18T04:32:40;8.80;99.90
15296;DHT22;7749;49.964;7.890;2023-03-18T04:35:13;8.80;99.90
15296;DHT22;7749;49.964;7.890;2023-03-18T04:37:43;8.70;99.90
15296;DHT22;7749;49.964;7.890;2023-03-18T04:40:11;8.70;99.90
15296;DHT22;7749;49.964;7.890;2023-03-18T04:42:39;8.70;99.90
15296;DHT22;7749;49.964;7.890;2023-03-18T04:45:07;8.70;99.90
15296;DHT22;7749;49.964;7.890;2023-03-18T04:47:37;8.70;99.90
15296;DHT22;7749;49.964;7.890;2023-03-18T04:50:06;8.70;99.90
15296;DHT22;7749;49.964;7.890;2023-03-18T04:52:41;8.70;99.90
15296;DHT22;7749;49.964;7.890;2023-03-18T04:55:11;8.60;99.90
15296;DHT22;7749;49.964;7.890;2023-03-18T04:57:43;8.80;99.90
15296;DHT22;7749;49.964;7.890;2023-03-18T05:00:17;8.70;99.90
15296;DHT22;7749;49.964;7.890;2023-03-18T05:02:48;8.70;99.90
15296;DHT22;7749;49.964;7.890;2023-03-18T05:05:16;8.70;99.90
15296;DHT22;7749;49.964;7.890;2023-03-18T05:07:44;8.70;99.90
15296;DHT22;7749;49.964;7.890;2023-03-18T05:10:12;8.70;99.90
15296;DHT22;7749;49.964;7.890;2023-03-18T05:12:40;8.70;99.90
15296;DHT22;7749;49.964;7.890;2023-03-18T05:15:08;8.70;99.90
15296;DHT22;7749;49.964;7.890;2023-03-18T05:17:38;8.60;99.90
15296;DHT22;7749;49.964;7.890;2023-03-18T05:20:11;8.50;99.90
15296;DHT22;7749;49.964;7.890;2023-03-18T05:22:42;8.50;99.90
15296;DHT22;7749;49.964;7.890;2023-03-18T05:25:10;8.50;99.90
15296;DHT22;7749;49.964;7.890;2023-03-18T05:27:39;8.40;99.90
15296;DHT22;7749;49.964;7.890;2023-03-18T05:30:08;8.40;99.90
15296;DHT22;7749;49.964;7.890;2023-03-18T05:32:41;8.30;99.90
15296;DHT22;7749;49.964;7.890;2023-03-18T05:35:09;8.30;99.90
15296;DHT22;7749;49.964;7.890;2023-03-18T05:37:37;8.20;99.90
15296;DHT22;7749;49.964;7.890;2023-03-18T05:40:06;8.20;99.90
15296;DHT22;7749;49.964;7.890;2023-03-18T05:42:38;8.10;99.90
15296;DHT22;7749;49.964;7.890;2023-03-18T05:45:22;8.10;99.90
15296;DHT22;7749;49.964;7.890;2023-03-18T05:47:50;8.00;99.90
15296;DHT22;7749;49.964;7.890;2023-03-18T05:50:32;8.00;99.90
15296;DHT22;7749;49.964;7.890;2023-03-18T05:53:02;7.90;99.90
15296;DHT22;7749;49.964;7.890;2023-03-18T05:55:30;7.90;99.90
15296;DHT22;7749;49.964;7.890;2023-03-18T05:57:59;7.90;99.90
15296;DHT22;7749;49.964;7.890;2023-03-18T06:00:27;7.90;99.90
15296;DHT22;7749;49.964;7.890;2023-03-18T06:02:57;7.90;99.90
15296;DHT22;7749;49.964;7.890;2023-03-18T06:05:26;7.90;99.90
15296;DHT22;7749;49.964;7.890;2023-03-18T06:08:01;7.80;99.90
15296;DHT22;7749;49.964;7.890;2023-03-18T06:10:29;8.00;99.90
15296;DHT22;7749;49.964;7.890;2023-03-18T06:12:57;7.80;99.90
15296;DHT22;7749;49.964;7.890;2023-03-18T06:15:25;7.80;99.90
15296;DHT22;7749;49.964;7.890;2023-03-18T06:17:52;7.80;99.90
15296;DHT22;7749;49.964;7.890;2023-03-18T06:20:23;7.80;99.90
15296;DHT22;7749;49.964;7.890;2023-03-18T06:22:54;7.80;99.90
15296;DHT22;7749;49.964;7.890;2023-03-18T06:25:23;7.80;99.90
15296;DHT22;7749;49.964;7.890;2023-03-18T06:27:50;7.90;99.90
15296;DHT22;7749;49.964;7.890;2023-03-18T06:30:18;7.90;99.90
15296;DHT22;7749;49.964;7.890;2023-03-18T06:32:46;7.90;99.90
15296;DHT22;7749;49.964;7.890;2023-03-18T06:35:17;8.00;99.90
15296;DHT22;7749;49.964;7.890;2023-03-18T06:37:45;8.20;99.90
15296;DHT22;7749;49.964;7.890;2023-03-18T06:40:13;8.30;99.90
15296;DHT22;7749;49.964;7.890;2023-03-18T06:42:44;8.40;99.90
15296;DHT22;7749;49.964;7.890;2023-03-18T06:45:12;8.50;99.90
15296;DHT22;7749;49.964;7.890;2023-03-18T06:47:42;8.60;99.90
15296;DHT22;7749;49.964;7.890;2023-03-18T06:50:10;8.70;99.90
15296;DHT22;7749;49.964;7.890;2023-03-18T06:52:38;8.80;99.90
15296;DHT22;7749;49.964;7.890;2023-03-18T06:55:06;8.90;99.90
15296;DHT22;7749;49.964;7.890;2023-03-18T06:57:34;8.90;99.90
15296;DHT22;7749;49.964;7.890;2023-03-18T07:00:03;9.00;99.90
15296;DHT22;7749;49.964;7.890;2023-03-18T07:02:31;9.10;99.90
15296;DHT22;7749;49.964;7.890;2023-03-18T07:04:59;9.10;99.90
15296;DHT22;7749;49.964;7.890;2023-03-18T07:07:28;9.10;99.90
15296;DHT22;7749;49.964;7.890;2023-03-18T07:09:56;9.10;99.90
15296;DHT22;7749;49.964;7.890;2023-03-18T07:12:26;9.20;99.90
15296;DHT22;7749;49.964;7.890;2023-03-18T07:14:54;9.30;99.90
15296;DHT22;7749;49.964;7.890;2023-03-18T07:17:22;9.30;99.90
15296;DHT22;7749;49.964;7.890;2023-03-18T07:19:50;9.30;99.90
15296;DHT22;7749;49.964;7.890;2023-03-18T07:22:18;9.30;99.90
15296;DHT22;7749;49.964;7.890;2023-03-18T07:24:46;9.30;99.90
15296;DHT22;7749;49.964;7.890;2023-03-18T07:27:13;9.40;99.90
15296;DHT22;7749;49.964;7.890;2023-03-18T07:29:41;9.50;99.90
15296;DHT22;7749;49.964;7.890;2023-03-18T07:32:11;9.60;99.90
15296;DHT22;7749;49.964;7.890;2023-03-18T07:34:39;9.70;99.90
15296;DHT22;7749;49.964;7.890;2023-03-18T07:37:07;9.80;99.90
15296;DHT22;7749;49.964;7.890;2023-03-18T07:39:35;9.80;99.90
15296;DHT22;7749;49.964;7.890;2023-03-18T07:42:03;9.90;99.90
15296;DHT22;7749;49.964;7.890;2023-03-18T07:44:31;9.90;99.90
15296;DHT22;7749;49.964;7.890;2023-03-18T07:46:59;10.00;99.90
15296;DHT22;7749;49.964;7.890;2023-03-18T07:49:27;10.00;99.90
15296;DHT22;7749;49.964;7.890;2023-03-18T07:51:56;10.10;99.90
15296;DHT22;7749;49.964;7.890;2023-03-18T07:54:23;10.20;99.90
15296;DHT22;7749;49.964;7.890;2023-03-18T07:56:51;10.30;99.90
15296;DHT22;7749;49.964;7.890;2023-03-18T07:59:19;10.40;99.90
15296;DHT22;7749;49.964;7.890;2023-03-18T08:01:47;10.40;99.90
15296;DHT22;7749;49.964;7.890;2023-03-18T08:04:15;10.40;99.90
15296;DHT22;7749;49.964;7.890;2023-03-18T08:06:45;10.50;99.90
15296;DHT22;7749;49.964;7.890;2023-03-18T08:09:12;10.60;99.90
15296;DHT22;7749;49.964;7.890;2023-03-18T08:11:40;10.60;99.90
15296;DHT22;7749;49.964;7.890;2023-03-18T08:14:08;10.60;99.90
15296;DHT22;7749;49.964;7.890;2023-03-18T08:16:35;10.70;99.90
15296;DHT22;7749;49.964;7.890;2023-03-18T08:19:03;10.90;99.90
15296;DHT22;7749;49.964;7.890;2023-03-18T08:21:34;11.00;99.90
15296;DHT22;7749;49.964;7.890;2023-03-18T08:24:02;11.10;99.90
15296;DHT22;7749;49.964;7.890;2023-03-18T08:26:30;11.20;99.90
15296;DHT22;7749;49.964;7.890;2023-03-18T08:28:57;11.30;99.90
15296;DHT22;7749;49.964;7.890;2023-03-18T08:31:25;11.40;99.90
15296;DHT22;7749;49.964;7.890;2023-03-18T08:33:53;11.50;99.90
15296;DHT22;7749;49.964;7.890;2023-03-18T08:36:22;11.70;99.90
15296;DHT22;7749;49.964;7.890;2023-03-18T08:38:51;11.90;99.90
15296;DHT22;7749;49.964;7.890;2023-03-18T08:41:19;12.00;99.90
15296;DHT22;7749;49.964;7.890;2023-03-18T08:43:47;12.10;99.90
15296;DHT22;7749;49.964;7.890;2023-03-18T08:46:14;12.20;99.90
15296;DHT22;7749;49.964;7.890;2023-03-18T08:48:42;12.40;99.90
15296;DHT22;7749;49.964;7.890;2023-03-18T08:51:10;12.40;99.90
15296;DHT22;7749;49.964;7.890;2023-03-18T08:53:41;12.60;99.90
15296;DHT22;7749;49.964;7.890;2023-03-18T08:56:09;12.60;99.90
15296;DHT22;7749;49.964;7.890;2023-03-18T08:58:36;12.80;99.90
15296;DHT22;7749;49.964;7.890;2023-03-18T09:01:04;12.90;99.90
15296;DHT22;7749;49.964;7.890;2023-03-18T09:03:32;13.00;99.90
15296;DHT22;7749;49.964;7.890;2023-03-18T09:06:01;13.20;99.90
15296;DHT22;7749;49.964;7.890;2023-03-18T09:08:29;13.10;99.90
15296;DHT22;7749;49.964;7.890;2023-03-18T09:10:59;13.20;99.90
15296;DHT22;7749;49.964;7.890;2023-03-18T09:13:26;13.60;99.90
15296;DHT22;7749;49.964;7.890;2023-03-18T09:16:01;13.90;78.60
15296;DHT22;7749;49.964;7.890;2023-03-18T09:18:33;14.00;56.00
15296;DHT22;7749;49.964;7.890;2023-03-18T09:21:02;13.90;57.60
15296;DHT22;7749;49.964;7.890;2023-03-18T09:23:31;14.00;65.70
15296;DHT22;7749;49.964;7.890;2023-03-18T09:26:04;14.10;51.90
15296;DHT22;7749;49.964;7.890;2023-03-18T09:28:34;14.30;47.50
15296;DHT22;7749;49.964;7.890;2023-03-18T09:31:02;14.60;24.10
15296;DHT22;7749;49.964;7.890;2023-03-18T09:33:30;15.00;11.20
15296;DHT22;7749;49.964;7.890;2023-03-18T09:35:58;15.20;1.00
15296;DHT22;7749;49.964;7.890;2023-03-18T09:38:25;15.40;1.00
15296;DHT22;7749;49.964;7.890;2023-03-18T09:41:03;15.60;1.00
15296;DHT22;7749;49.964;7.890;2023-03-18T09:46:36;16.00;1.00
15296;DHT22;7749;49.964;7.890;2023-03-18T09:57:35;16.70;99.90
15296;DHT22;7749;49.964;7.890;2023-03-18T10:05:27;17.40;1.00
15296;DHT22;7749;49.964;7.890;2023-03-18T10:08:03;17.50;99.90
15296;DHT22;7749;49.964;7.890;2023-03-18T10:10:42;17.50;1.00
15296;DHT22;7749;49.964;7.890;2023-03-18T10:13:22;17.60;99.90
15296;DHT22;7749;49.964;7.890;2023-03-18T10:15:53;17.70;1.00
15296;DHT22;7749;49.964;7.890;2023-03-18T10:18:29;17.80;1.00
15296;DHT22;7749;49.964;7.890;2023-03-18T10:26:43;17.80;1.00
15296;DHT22;7749;49.964;7.890;2023-03-18T10:38:02;18.20;1.00
15296;DHT22;7749;49.964;7.890;2023-03-18T10:40:36;18.60;1.00
15296;DHT22;7749;49.964;7.890;2023-03-18T10:43:15;18.50;99.90
15296;DHT22;7749;49.964;7.890;2023-03-18T10:45:45;19.10;1.00
15296;DHT22;7749;49.964;7.890;2023-03-18T10:48:19;19.60;1.00
15296;DHT22;7749;49.964;7.890;2023-03-18T10:51:08;19.40;1.00
15296;DHT22;7749;49.964;7.890;2023-03-18T10:53:47;18.80;1.00
15296;DHT22;7749;49.964;7.890;2023-03-18T10:56:15;18.80;99.90
15296;DHT22;7749;49.964;7.890;2023-03-18T10:58:43;19.00;99.90
15296;DHT22;7749;49.964;7.890;2023-03-18T11:01:15;19.10;1.00
15296;DHT22;7749;49.964;7.890;2023-03-18T11:04:00;19.40;1.00
15296;DHT22;7749;49.964;7.890;2023-03-18T11:06:37;19.40;1.00
15296;DHT22;7749;49.964;7.890;2023-03-18T11:09:10;19.70;1.00
15296;DHT22;7749;49.964;7.890;2023-03-18T11:11:44;20.70;1.00
15296;DHT22;7749;49.964;7.890;2023-03-18T11:14:19;23.10;1.00
15296;DHT22;7749;49.964;7.890;2023-03-18T11:19:27;24.60;69.70
15296;DHT22;7749;49.964;7.890;2023-03-18T11:22:22;25.10;67.10
15296;DHT22;7749;49.964;7.890;2023-03-18T11:25:13;25.50;62.00
15296;DHT22;7749;49.964;7.890;2023-03-18T11:27:42;25.90;59.50
15296;DHT22;7749;49.964;7.890;2023-03-18T11:30:23;26.10;58.10
15296;DHT22;7749;49.964;7.890;2023-03-18T11:38:23;27.00;1.00
15296;DHT22;7749;49.964;7.890;2023-03-18T11:43:36;28.30;1.00
15296;DHT22;7749;49.964;7.890;2023-03-18T11:46:07;28.50;1.00
15296;DHT22;7749;49.964;7.890;2023-03-18T11:48:37;28.60;1.00
15296;DHT22;7749;49.964;7.890;2023-03-18T11:56:44;27.00;1.00
15296;DHT22;7749;49.964;7.890;2023-03-18T12:07:40;25.10;1.00
15296;DHT22;7749;49.964;7.890;2023-03-18T12:10:22;25.00;1.00
15296;DHT22;7749;49.964;7.890;2023-03-18T12:18:58;24.10;1.00
15296;DHT22;7749;49.964;7.890;2023-03-18T12:26:57;25.30;1.00
15296;DHT22;7749;49.964;7.890;2023-03-18T12:40:35;25.70;1.00
15296;DHT22;7749;49.964;7.890;2023-03-18T12:46:31;27.10;1.00
15296;DHT22;7749;49.964;7.890;2023-03-18T12:49:27;27.60;1.00
15296;DHT22;7749;49.964;7.890;2023-03-18T12:52:00;28.20;1.00
15296;DHT22;7749;49.964;7.890;2023-03-18T12:55:03;28.70;1.00
15296;DHT22;7749;49.964;7.890;2023-03-18T12:58:00;28.30;1.00
15296;DHT22;7749;49.964;7.890;2023-03-18T13:03:40;27.10;1.00
15296;DHT22;7749;49.964;7.890;2023-03-18T13:06:16;25.50;1.00
15296;DHT22;7749;49.964;7.890;2023-03-18T13:11:47;25.70;1.00
15296;DHT22;7749;49.964;7.890;2023-03-18T13:17:12;27.00;1.00
15296;DHT22;7749;49.964;7.890;2023-03-18T13:19:41;27.30;1.00
15296;DHT22;7749;49.964;7.890;2023-03-18T13:22:29;26.00;1.00
15296;DHT22;7749;49.964;7.890;2023-03-18T13:27:50;23.20;1.00
15296;DHT22;7749;49.964;7.890;2023-03-18T13:30:38;22.50;1.00
15296;DHT22;7749;49.964;7.890;2023-03-18T13:42:23;20.90;1.00
15296;DHT22;7749;49.964;7.890;2023-03-18T13:45:18;21.60;1.00
15296;DHT22;7749;49.964;7.890;2023-03-18T13:48:06;22.70;1.00
15296;DHT22;7749;49.964;7.890;2023-03-18T13:50:42;24.40;1.00
15296;DHT22;7749;49.964;7.890;2023-03-18T13:55:52;28.60;1.00
15296;DHT22;7749;49.964;7.890;2023-03-18T13:58:26;30.00;1.00
15296;DHT22;7749;49.964;7.890;2023-03-18T14:03:28;29.10;1.00
15296;DHT22;7749;49.964;7.890;2023-03-18T14:13:55;31.50;99.90
15296;DHT22;7749;49.964;7.890;2023-03-18T14:16:50;30.60;99.90
15296;DHT22;7749;49.964;7.890;2023-03-18T14:19:19;31.90;99.90
15296;DHT22;7749;49.964;7.890;2023-03-18T14:21:53;32.90;99.90
15296;DHT22;7749;49.964;7.890;2023-03-18T14:24:31;33.40;99.90
15296;DHT22;7749;49.964;7.890;2023-03-18T14:29:39;30.00;99.90
15296;DHT22;7749;49.964;7.890;2023-03-18T14:40:44;30.10;99.90
15296;DHT22;7749;49.964;7.890;2023-03-18T14:43:35;30.70;99.90
15296;DHT22;7749;49.964;7.890;2023-03-18T14:46:07;30.40;99.90
15296;DHT22;7749;49.964;7.890;2023-03-18T14:48:42;31.60;99.90
15296;DHT22;7749;49.964;7.890;2023-03-18T14:51:18;32.00;99.90
15296;DHT22;7749;49.964;7.890;2023-03-18T14:53:51;32.10;99.90
15296;DHT22;7749;49.964;7.890;2023-03-18T14:56:22;31.80;99.90
15296;DHT22;7749;49.964;7.890;2023-03-18T14:58:54;31.50;99.90
15296;DHT22;7749;49.964;7.890;2023-03-18T15:01:27;32.40;99.90
15296;DHT22;7749;49.964;7.890;2023-03-18T15:04:00;33.00;99.90
15296;DHT22;7749;49.964;7.890;2023-03-18T15:07:08;32.60;99.90
15296;DHT22;7749;49.964;7.890;2023-03-18T15:09:40;31.40;99.90
15296;DHT22;7749;49.964;7.890;2023-03-18T15:12:21;30.30;99.90
15296;DHT22;7749;49.964;7.890;2023-03-18T15:14:51;29.90;99.90
15296;DHT22;7749;49.964;7.890;2023-03-18T15:17:19;29.10;99.90
15296;DHT22;7749;49.964;7.890;2023-03-18T15:19:47;27.80;99.90
15296;DHT22;7749;49.964;7.890;2023-03-18T15:22:21;26.60;99.90
15296;DHT22;7749;49.964;7.890;2023-03-18T15:25:04;25.70;99.90
15296;DHT22;7749;49.964;7.890;2023-03-18T15:27:34;25.10;99.90
15296;DHT22;7749;49.964;7.890;2023-03-18T15:30:04;25.60;99.90
15296;DHT22;7749;49.964;7.890;2023-03-18T15:32:45;27.40;99.90
15296;DHT22;7749;49.964;7.890;2023-03-18T15:35:19;29.10;99.90
15296;DHT22;7749;49.964;7.890;2023-03-18T15:41:01;30.70;99.90
15296;DHT22;7749;49.964;7.890;2023-03-18T15:43:38;31.60;99.90
15296;DHT22;7749;49.964;7.890;2023-03-18T15:46:25;31.80;99.90
15296;DHT22;7749;49.964;7.890;2023-03-18T15:48:55;32.00;99.90
15296;DHT22;7749;49.964;7.890;2023-03-18T15:51:50;31.90;99.90
15296;DHT22;7749;49.964;7.890;2023-03-18T15:54:35;31.70;99.90
15296;DHT22;7749;49.964;7.890;2023-03-18T15:57:12;31.10;99.90
15296;DHT22;7749;49.964;7.890;2023-03-18T15:59:43;30.20;99.90
15296;DHT22;7749;49.964;7.890;2023-03-18T16:02:14;29.40;99.90
15296;DHT22;7749;49.964;7.890;2023-03-18T16:04:42;29.40;99.90
15296;DHT22;7749;49.964;7.890;2023-03-18T16:07:16;29.30;99.90
15296;DHT22;7749;49.964;7.890;2023-03-18T16:09:45;28.30;99.90
15296;DHT22;7749;49.964;7.890;2023-03-18T16:12:18;27.60;99.90
15296;DHT22;7749;49.964;7.890;2023-03-18T16:14:48;27.10;99.90
15296;DHT22;7749;49.964;7.890;2023-03-18T16:17:18;25.70;99.90
15296;DHT22;7749;49.964;7.890;2023-03-18T16:19:48;24.30;99.90
15296;DHT22;7749;49.964;7.890;2023-03-18T16:22:20;23.20;99.90
15296;DHT22;7749;49.964;7.890;2023-03-18T16:24:49;22.30;99.90
15296;DHT22;7749;49.964;7.890;2023-03-18T16:27:28;21.70;99.90
15296;DHT22;7749;49.964;7.890;2023-03-18T16:29:57;21.00;99.90
15296;DHT22;7749;49.964;7.890;2023-03-18T16:32:24;20.60;99.90
15296;DHT22;7749;49.964;7.890;2023-03-18T16:34:52;20.20;99.90
15296;DHT22;7749;49.964;7.890;2023-03-18T16:37:24;19.90;99.90
15296;DHT22;7749;49.964;7.890;2023-03-18T16:39:53;19.60;99.90
15296;DHT22;7749;49.964;7.890;2023-03-18T16:42:23;19.30;99.90
15296;DHT22;7749;49.964;7.890;2023-03-18T16:44:51;19.10;1.00
15296;DHT22;7749;49.964;7.890;2023-03-18T16:47:24;18.90;1.00
15296;DHT22;7749;49.964;7.890;2023-03-18T16:49:53;18.80;1.00
15296;DHT22;7749;49.964;7.890;2023-03-18T16:52:24;18.60;1.00
15296;DHT22;7749;49.964;7.890;2023-03-18T16:54:51;18.50;1.00
15296;DHT22;7749;49.964;7.890;2023-03-18T16:57:19;18.40;1.00
15296;DHT22;7749;49.964;7.890;2023-03-18T17:00:21;18.20;99.90
15296;DHT22;7749;49.964;7.890;2023-03-18T17:02:50;18.10;1.00
15296;DHT22;7749;49.964;7.890;2023-03-18T17:05:21;17.90;67.00
15296;DHT22;7749;49.964;7.890;2023-03-18T17:07:50;17.70;67.80
15296;DHT22;7749;49.964;7.890;2023-03-18T17:10:24;17.70;69.40
15296;DHT22;7749;49.964;7.890;2023-03-18T17:12:56;17.50;73.40
15296;DHT22;7749;49.964;7.890;2023-03-18T17:15:30;17.50;74.90
15296;DHT22;7749;49.964;7.890;2023-03-18T17:17:59;17.30;77.60
15296;DHT22;7749;49.964;7.890;2023-03-18T17:20:30;17.20;80.70
15296;DHT22;7749;49.964;7.890;2023-03-18T17:23:01;17.00;83.80
15296;DHT22;7749;49.964;7.890;2023-03-18T17:25:31;16.80;86.70
15296;DHT22;7749;49.964;7.890;2023-03-18T17:28:05;16.60;90.00
15296;DHT22;7749;49.964;7.890;2023-03-18T17:30:34;16.50;91.60
15296;DHT22;7749;49.964;7.890;2023-03-18T17:33:03;16.30;92.80
15296;DHT22;7749;49.964;7.890;2023-03-18T17:35:31;16.20;94.10
15296;DHT22;7749;49.964;7.890;2023-03-18T17:38:00;16.10;95.40
15296;DHT22;7749;49.964;7.890;2023-03-18T17:40:28;16.00;96.80
15296;DHT22;7749;49.964;7.890;2023-03-18T17:42:56;15.80;97.90
15296;DHT22;7749;49.964;7.890;2023-03-18T17:45:31;15.70;99.50
15296;DHT22;7749;49.964;7.890;2023-03-18T17:50:39;15.60;99.90
15296;DHT22;7749;49.964;7.890;2023-03-18T17:55:47;15.30;99.90
15296;DHT22;7749;49.964;7.890;2023-03-18T17:58:17;15.30;99.90
15296;DHT22;7749;49.964;7.890;2023-03-18T18:00:45;15.20;99.90
15296;DHT22;7749;49.964;7.890;2023-03-18T18:03:25;15.10;99.90
15296;DHT22;7749;49.964;7.890;2023-03-18T18:05:54;15.00;99.90
15296;DHT22;7749;49.964;7.890;2023-03-18T18:08:24;14.90;99.90
15296;DHT22;7749;49.964;7.890;2023-03-18T18:13:41;14.80;99.90
15296;DHT22;7749;49.964;7.890;2023-03-18T18:16:09;14.50;99.90
15296;DHT22;7749;49.964;7.890;2023-03-18T18:18:37;14.60;99.90
15296;DHT22;7749;49.964;7.890;2023-03-18T18:21:11;14.50;99.90
15296;DHT22;7749;49.964;7.890;2023-03-18T18:23:42;14.40;99.90
15296;DHT22;7749;49.964;7.890;2023-03-18T18:26:16;14.40;99.90
15296;DHT22;7749;49.964;7.890;2023-03-18T18:28:49;14.30;99.90
15296;DHT22;7749;49.964;7.890;2023-03-18T18:31:18;14.20;99.90
15296;DHT22;7749;49.964;7.890;2023-03-18T18:33:47;14.10;99.90
15296;DHT22;7749;49.964;7.890;2023-03-18T18:36:16;14.10;1.00
15296;DHT22;7749;49.964;7.890;2023-03-18T18:38:44;14.10;1.00
15296;DHT22;7749;49.964;7.890;2023-03-18T18:41:12;13.90;99.90
15296;DHT22;7749;49.964;7.890;2023-03-18T18:43:40;13.90;99.90
15296;DHT22;7749;49.964;7.890;2023-03-18T18:46:12;13.90;1.00